Time;durP1;ratioP1;P1;durP2;ratioP2;P2;SDS_P1;SDS_P2;PMS_P1;PMS_P2;Temp;Humidity;BMP_temperature;BMP_pressure;BME280_temperature;BME280_humidity;BME280_pressure;Samples;Min_cycle;Max_cycle;Signal;HPM_P1;HPM_P2
2022/08/25 00:01:34;;;;;;;7.75;6.93;;;20.30;99.90;;;;;;4938482;28;94075;-30
2022/08/25 00:04:01;;;;;;;7.47;6.82;;;20.30;99.90;;;;;;4937610;28;92664;-34
2022/08/25 00:06:27;;;;;;;7.15;6.53;;;20.20;99.90;;;;;;4923914;28;95657;-30
2022/08/25 00:08:53;;;;;;;9.60;6.97;;;20.10;99.90;;;;;;4937865;28;95758;-31
2022/08/25 00:11:23;;;;;;;7.93;7.22;;;20.10;99.90;;;;;;4937868;28;94429;-31
2022/08/25 00:13:54;;;;;;;6.72;6.20;;;20.10;99.90;;;;;;4936928;28;94641;-31
2022/08/25 00:16:22;;;;;;;10.15;7.43;;;20.10;99.90;;;;;;4937645;28;94140;-34
2022/08/25 00:18:54;;;;;;;10.00;7.03;;;20.00;99.90;;;;;;4937872;28;94683;-33
2022/08/25 00:21:20;;;;;;;10.45;7.18;;;20.00;99.90;;;;;;4937769;28;93113;-32
2022/08/25 00:23:46;;;;;;;9.25;6.75;;;20.00;99.90;;;;;;4937144;28;92920;-31
2022/08/25 00:26:13;;;;;;;7.32;6.53;;;20.00;99.90;;;;;;4937950;28;94445;-35
2022/08/25 00:28:39;;;;;;;7.93;7.22;;;19.90;99.90;;;;;;4971491;22;94118;-29
2022/08/25 00:31:05;;;;;;;7.00;6.28;;;19.90;99.90;;;;;;4938204;28;93126;-32
2022/08/25 00:33:32;;;;;;;11.07;6.68;;;19.90;99.90;;;;;;4937381;28;93334;-33
2022/08/25 00:35:59;;;;;;;7.18;6.55;;;19.90;99.90;;;;;;4937646;28;94892;-30
2022/08/25 00:38:25;;;;;;;7.07;6.45;;;19.90;99.90;;;;;;4937251;28;94571;-32
2022/08/25 00:41:04;;;;;;;8.70;6.07;;;19.90;99.90;;;;;;4938483;28;93003;-33
2022/08/25 00:43:44;;;;;;;6.97;6.30;;;19.80;99.90;;;;;;4937554;28;94060;-30
2022/08/25 00:46:12;;;;;;;6.40;5.90;;;19.80;99.90;;;;;;4925164;28;94767;-32
2022/08/25 00:48:41;;;;;;;7.85;7.10;;;19.70;99.90;;;;;;4938215;28;94402;-32
2022/08/25 00:51:08;;;;;;;6.22;5.63;;;19.70;99.90;;;;;;4938285;28;94323;-30
2022/08/25 00:53:34;;;;;;;5.88;5.40;;;19.60;99.90;;;;;;4937012;28;92189;-33
2022/08/25 00:56:00;;;;;;;6.45;5.85;;;19.60;99.90;;;;;;4937105;28;96409;-31
2022/08/25 00:58:27;;;;;;;8.00;6.25;;;19.60;99.90;;;;;;4936821;28;95507;-33
2022/08/25 01:00:55;;;;;;;7.78;7.03;;;19.60;99.90;;;;;;4937731;28;93092;-29
2022/08/25 01:03:23;;;;;;;6.43;5.82;;;19.60;99.90;;;;;;4936465;28;93324;-32
2022/08/25 01:05:49;;;;;;;;;;;19.60;99.90;;;;;;4926464;28;95093;-35
2022/08/25 01:08:19;;;;;;;5.78;5.28;;;19.60;99.90;;;;;;4935683;28;94016;-30
2022/08/25 01:10:45;;;;;;;8.93;6.05;;;19.60;99.90;;;;;;4938621;28;93155;-31
2022/08/25 01:13:32;;;;;;;7.93;6.32;;;19.60;99.90;;;;;;4937118;28;93161;-34
2022/08/25 01:15:58;;;;;;;7.00;6.40;;;19.60;99.90;;;;;;4937135;28;97714;-32
2022/08/25 01:18:26;;;;;;;5.97;5.53;;;19.50;99.90;;;;;;4937269;28;94482;-32
2022/08/25 01:20:53;;;;;;;5.93;5.43;;;19.60;99.90;;;;;;4937101;28;94141;-32
2022/08/25 01:23:21;;;;;;;5.78;5.32;;;19.50;99.90;;;;;;4936453;28;93376;-29
2022/08/25 01:26:07;;;;;;;7.38;6.43;;;19.50;99.90;;;;;;4937778;28;94832;-34
2022/08/25 01:28:35;;;;;;;7.03;5.93;;;19.50;99.90;;;;;;4939952;28;94547;-32
2022/08/25 01:31:01;;;;;;;9.43;6.55;;;19.40;99.90;;;;;;4941679;28;93292;-32
2022/08/25 01:33:26;;;;;;;6.90;6.28;;;19.40;99.90;;;;;;4939552;28;94653;-29
2022/08/25 01:35:53;;;;;;;5.53;5.03;;;19.40;99.90;;;;;;4940404;28;94764;-30
2022/08/25 01:38:19;;;;;;;7.28;5.63;;;19.40;99.90;;;;;;4940561;28;95698;-32
2022/08/25 01:40:45;;;;;;;5.65;5.07;;;19.40;99.90;;;;;;4940564;28;93947;-31
2022/08/25 01:43:35;;;;;;;5.90;5.25;;;19.30;99.90;;;;;;4940659;28;93215;-33
2022/08/25 01:46:01;;;;;;;4.88;4.50;;;19.30;99.90;;;;;;4939925;28;95751;-34
2022/08/25 01:48:27;;;;;;;7.82;5.38;;;19.30;99.90;;;;;;4939921;28;95742;-30
2022/08/25 01:50:52;;;;;;;6.35;5.40;;;19.20;99.90;;;;;;4940281;28;92370;-35
2022/08/25 01:53:22;;;;;;;5.72;5.15;;;19.20;99.90;;;;;;4940724;28;94028;-30
2022/08/25 01:55:51;;;;;;;6.07;5.57;;;19.20;99.90;;;;;;4940384;28;94961;-30
2022/08/25 01:58:26;;;;;;;5.57;5.05;;;19.20;99.90;;;;;;4939816;28;94257;-30
2022/08/25 02:00:55;;;;;;;8.82;5.25;;;19.20;99.90;;;;;;4940410;28;92176;-33
2022/08/25 02:03:22;;;;;;;5.60;5.07;;;19.20;99.90;;;;;;4939356;28;92594;-32
2022/08/25 02:05:47;;;;;;;5.68;5.05;;;19.20;99.90;;;;;;4929708;28;95080;-32
2022/08/25 02:08:13;;;;;;;6.03;5.47;;;19.20;99.90;;;;;;4936517;28;94680;-31
2022/08/25 02:10:39;;;;;;;6.45;5.50;;;19.20;99.90;;;;;;4937314;28;95722;-33
2022/08/25 02:13:07;;;;;;;4.95;4.57;;;19.30;99.90;;;;;;4939730;28;94699;-30
2022/08/25 02:15:33;;;;;;;11.73;6.43;;;19.30;99.90;;;;;;4938882;28;94394;-29
2022/08/25 02:17:59;;;;;;;6.28;5.78;;;19.30;99.90;;;;;;4939936;28;95027;-31
2022/08/25 02:20:25;;;;;;;5.18;4.75;;;19.20;99.90;;;;;;4940265;28;92738;-30
2022/08/25 02:22:51;;;;;;;8.40;5.50;;;19.10;99.90;;;;;;4939493;28;94355;-30
2022/08/25 02:25:18;;;;;;;6.80;4.82;;;19.10;99.90;;;;;;4939722;28;94840;-30
2022/08/25 02:27:44;;;;;;;7.63;6.00;;;19.10;99.90;;;;;;4940202;28;94621;-31
2022/08/25 02:30:12;;;;;;;5.78;5.18;;;19.10;99.90;;;;;;4939208;28;94265;-30
2022/08/25 02:32:38;;;;;;;9.30;5.75;;;19.00;99.90;;;;;;4940230;28;93299;-30
2022/08/25 02:35:05;;;;;;;5.10;4.65;;;19.00;99.90;;;;;;4938986;28;96062;-32
2022/08/25 02:37:31;;;;;;;7.32;5.47;;;18.90;99.90;;;;;;4938545;28;95501;-30
2022/08/25 02:39:58;;;;;;;5.95;5.45;;;18.90;99.90;;;;;;4939374;28;94554;-33
2022/08/25 02:42:23;;;;;;;7.70;5.63;;;18.80;99.90;;;;;;4940111;28;94641;-32
2022/08/25 02:44:49;;;;;;;6.63;5.95;;;18.80;99.90;;;;;;4938436;28;94897;-29
2022/08/25 02:47:15;;;;;;;6.65;6.05;;;18.70;99.90;;;;;;4939834;28;94558;-30
2022/08/25 02:49:41;;;;;;;10.35;6.60;;;18.70;99.90;;;;;;4939026;28;93413;-31
2022/08/25 02:52:07;;;;;;;6.75;6.13;;;18.70;99.90;;;;;;4939351;28;93914;-30
2022/08/25 02:54:33;;;;;;;6.45;5.85;;;18.70;99.90;;;;;;4939087;28;94681;-30
2022/08/25 02:56:59;;;;;;;6.03;5.47;;;18.70;99.90;;;;;;4938914;28;95185;-31
2022/08/25 02:59:25;;;;;;;6.32;5.82;;;18.60;99.90;;;;;;4939080;28;93905;-32
2022/08/25 03:01:51;;;;;;;8.57;5.88;;;18.60;99.90;;;;;;4938839;28;94188;-30
2022/08/25 03:04:17;;;;;;;6.43;5.82;;;18.60;99.90;;;;;;4937823;28;94818;-31
2022/08/25 03:06:43;;;;;;;6.55;6.03;;;18.50;99.90;;;;;;4939726;28;94268;-31
2022/08/25 03:09:09;;;;;;;7.40;6.60;;;18.50;99.90;;;;;;4939114;28;93090;-32
2022/08/25 03:11:36;;;;;;;7.25;6.35;;;18.50;99.90;;;;;;4939124;28;95187;-29
2022/08/25 03:14:01;;;;;;;11.15;6.80;;;18.60;99.90;;;;;;4938724;28;95319;-30
2022/08/25 03:16:28;;;;;;;7.78;7.07;;;18.60;99.90;;;;;;4938697;28;95349;-31
2022/08/25 03:18:53;;;;;;;5.90;5.40;;;18.60;99.90;;;;;;4937848;28;93502;-30
2022/08/25 03:21:19;;;;;;;8.80;7.22;;;18.60;99.90;;;;;;4939314;28;92105;-31
2022/08/25 03:23:45;;;;;;;10.52;7.05;;;18.50;99.90;;;;;;4938301;28;95723;-34
2022/08/25 03:28:56;;;;;;;7.35;6.82;;;18.50;99.90;;;;;;4938224;28;94533;-30
2022/08/25 03:31:22;;;;;;;9.95;8.60;;;18.40;99.90;;;;;;4938750;28;92545;-31
2022/08/25 03:33:48;;;;;;;8.07;7.35;;;18.40;99.90;;;;;;4938588;28;94694;-31
2022/08/25 03:36:14;;;;;;;8.10;7.22;;;18.40;99.90;;;;;;4937915;28;94391;-33
2022/08/25 03:38:40;;;;;;;10.05;7.13;;;18.40;99.90;;;;;;4938979;28;92709;-34
2022/08/25 03:41:24;;;;;;;10.02;9.00;;;18.40;99.90;;;;;;4938813;28;93298;-30
2022/08/25 03:43:50;;;;;;;7.88;7.18;;;18.40;99.90;;;;;;4938569;28;94968;-33
2022/08/25 03:46:23;;;;;;;9.68;7.80;;;18.30;99.90;;;;;;4937793;28;94538;-32
2022/08/25 03:48:49;;;;;;;7.95;7.18;;;18.30;99.90;;;;;;4937294;28;95441;-31
2022/08/25 03:51:30;;;;;;;9.30;8.43;;;18.30;99.90;;;;;;4938696;28;92742;-30
2022/08/25 03:53:57;;;;;;;9.40;8.30;;;18.30;99.90;;;;;;4938196;28;95061;-31
2022/08/25 03:56:23;;;;;;;7.70;7.00;;;18.30;99.90;;;;;;4938242;28;93968;-31
2022/08/25 03:58:50;;;;;;;8.27;7.35;;;18.30;99.90;;;;;;4938222;28;93243;-33
2022/08/25 04:01:15;;;;;;;6.90;6.30;;;18.30;99.90;;;;;;4938363;28;93122;-33
2022/08/25 04:03:41;;;;;;;8.90;7.30;;;18.30;99.90;;;;;;4934439;28;94736;-33
2022/08/25 04:06:07;;;;;;;7.80;7.00;;;18.20;99.90;;;;;;4928280;28;93843;-31
2022/08/25 04:08:33;;;;;;;8.15;6.82;;;18.20;99.90;;;;;;4938370;28;93313;-32
2022/08/25 04:11:05;;;;;;;6.85;6.18;;;18.20;99.90;;;;;;4937899;28;93147;-32
2022/08/25 04:13:31;;;;;;;6.60;6.05;;;18.20;99.90;;;;;;4937344;28;95795;-29
2022/08/25 04:15:56;;;;;;;7.80;6.45;;;18.20;99.90;;;;;;4938340;28;95862;-34
2022/08/25 04:18:22;;;;;;;7.85;7.15;;;18.10;99.90;;;;;;4938205;28;93456;-31
2022/08/25 04:20:47;;;;;;;9.60;7.47;;;18.10;99.90;;;;;;4937491;28;94295;-35
2022/08/25 04:23:13;;;;;;;6.38;5.78;;;18.00;99.90;;;;;;4937766;28;94686;-30
2022/08/25 04:25:43;;;;;;;8.38;7.53;;;18.00;99.90;;;;;;4937501;28;94408;-29
2022/08/25 04:28:09;;;;;;;9.98;7.05;;;17.90;99.90;;;;;;4937792;28;94882;-32
2022/08/25 04:30:40;;;;;;;8.07;7.28;;;17.90;99.90;;;;;;4938482;28;93665;-30
2022/08/25 04:33:05;;;;;;;10.52;7.28;;;17.90;99.90;;;;;;4937911;28;94961;-32
2022/08/25 04:35:31;;;;;;;6.95;6.25;;;17.90;99.90;;;;;;4936828;28;94543;-31
2022/08/25 04:37:56;;;;;;;7.22;6.55;;;17.90;99.90;;;;;;4937218;28;95482;-30
2022/08/25 04:40:22;;;;;;;15.00;7.38;;;17.90;99.90;;;;;;4938083;28;93287;-31
2022/08/25 04:42:48;;;;;;;12.38;7.55;;;17.90;99.90;;;;;;4937538;28;94398;-31
2022/08/25 04:45:13;;;;;;;8.80;6.22;;;18.00;99.90;;;;;;4937168;28;94788;-29
2022/08/25 04:47:39;;;;;;;8.00;6.82;;;18.00;99.90;;;;;;4938437;28;93436;-33
2022/08/25 04:50:06;;;;;;;7.78;6.72;;;18.00;99.90;;;;;;4937664;28;92387;-30
2022/08/25 04:52:32;;;;;;;12.93;8.68;;;18.00;99.90;;;;;;4937636;28;94463;-31
2022/08/25 04:54:58;;;;;;;8.65;6.53;;;18.00;99.90;;;;;;4937428;28;94718;-29
2022/08/25 04:57:24;;;;;;;7.38;6.68;;;18.10;99.90;;;;;;4937530;28;94587;-31
2022/08/25 04:59:50;;;;;;;7.85;6.38;;;18.20;99.90;;;;;;4937002;28;94706;-30
2022/08/25 05:02:16;;;;;;;8.18;6.45;;;18.20;99.90;;;;;;4936572;28;95623;-28
2022/08/25 05:04:42;;;;;;;7.80;6.47;;;18.20;99.90;;;;;;4937383;28;95303;-33
2022/08/25 05:07:08;;;;;;;7.55;6.75;;;18.20;99.90;;;;;;4937688;28;92269;-34
2022/08/25 05:09:33;;;;;;;8.60;6.35;;;18.10;99.90;;;;;;4937721;28;92301;-30
2022/08/25 05:12:00;;;;;;;6.93;6.20;;;18.10;99.90;;;;;;4937277;28;96761;-32
2022/08/25 05:14:26;;;;;;;9.27;6.65;;;18.10;99.90;;;;;;4936180;28;94871;-31
2022/08/25 05:16:52;;;;;;;9.68;7.70;;;18.10;99.90;;;;;;4937505;28;93473;-29
2022/08/25 05:19:18;;;;;;;9.82;8.32;;;18.10;99.90;;;;;;4937495;28;93626;-32
2022/08/25 05:21:43;;;;;;;8.20;7.03;;;18.20;99.90;;;;;;4936811;28;94359;-33
2022/08/25 05:24:09;;;;;;;7.68;6.93;;;18.10;99.90;;;;;;4935968;28;94424;-30
2022/08/25 05:26:36;;;;;;;10.88;7.82;;;18.20;99.90;;;;;;4934480;28;96082;-29
2022/08/25 05:29:03;;;;;;;20.02;6.03;;;18.20;99.90;;;;;;4935584;28;93765;-31
2022/08/25 05:31:30;;;;;;;8.63;7.80;;;18.30;99.90;;;;;;4936669;28;93365;-32
2022/08/25 05:33:57;;;;;;;12.65;7.80;;;18.30;99.90;;;;;;4935580;28;94817;-31
2022/08/25 05:36:25;;;;;;;7.00;6.30;;;18.40;99.90;;;;;;4936063;28;92280;-33
2022/08/25 05:38:51;;;;;;;8.40;6.72;;;18.50;99.90;;;;;;4936087;28;94218;-34
2022/08/25 05:41:20;;;;;;;7.28;6.25;;;18.50;99.90;;;;;;4936252;28;94666;-31
2022/08/25 05:43:47;;;;;;;8.75;7.20;;;18.60;99.90;;;;;;4936665;28;96130;-30
2022/08/25 05:46:14;;;;;;;8.20;7.10;;;18.60;99.90;;;;;;4936637;28;94676;-30
2022/08/25 05:48:40;;;;;;;8.80;7.17;;;18.60;99.90;;;;;;4936373;28;92187;-31
2022/08/25 05:51:09;;;;;;;11.82;7.47;;;18.70;99.90;;;;;;4936054;28;97474;-33
2022/08/25 05:53:35;;;;;;;9.93;8.77;;;18.70;99.90;;;;;;4935699;28;97338;-31
2022/08/25 05:56:01;;;;;;;11.73;8.93;;;18.80;99.90;;;;;;4936534;28;93051;-32
2022/08/25 05:58:29;;;;;;;11.18;8.18;;;18.80;99.90;;;;;;4936350;28;92325;-34
2022/08/25 06:00:56;;;;;;;7.82;7.03;;;18.80;99.90;;;;;;4935840;28;95156;-33
2022/08/25 06:03:22;;;;;;;13.95;9.25;;;18.90;99.90;;;;;;4935432;28;94588;-32
2022/08/25 06:05:49;;;;;;;11.98;7.80;;;18.90;99.90;;;;;;4937111;28;93353;-31
2022/08/25 06:08:15;;;;;;;8.88;7.95;;;18.90;99.90;;;;;;4936635;28;93341;-32
2022/08/25 06:10:41;;;;;;;9.55;8.20;;;19.00;99.90;;;;;;4936182;28;95876;-33
2022/08/25 06:13:07;;;;;;;9.27;7.20;;;19.10;99.90;;;;;;4939747;28;94482;-31
2022/08/25 06:15:33;;;;;;;9.77;8.18;;;19.10;99.90;;;;;;4938871;28;94688;-32
2022/08/25 06:18:00;;;;;;;8.50;7.47;;;19.20;99.90;;;;;;4940552;28;92744;-32
2022/08/25 06:20:28;;;;;;;11.13;8.98;;;19.30;99.90;;;;;;4940236;28;95086;-32
2022/08/25 06:22:54;;;;;;;9.82;7.70;;;19.40;99.90;;;;;;4940174;28;94017;-32
2022/08/25 06:25:22;;;;;;;9.20;8.30;;;19.40;99.90;;;;;;4939755;28;94319;-30
2022/08/25 06:27:49;;;;;;;10.98;8.70;;;19.50;99.90;;;;;;4939147;28;94432;-34
2022/08/25 06:30:17;;;;;;;10.50;8.55;;;19.60;99.90;;;;;;4939434;28;94975;-31
2022/08/25 06:32:44;;;;;;;8.50;7.38;;;19.70;99.90;;;;;;4939880;28;94432;-30
2022/08/25 06:35:13;;;;;;;8.73;7.82;;;19.80;99.90;;;;;;4939387;28;92695;-31
2022/08/25 06:37:41;;;;;;;13.05;8.93;;;19.90;99.90;;;;;;4939030;28;92505;-31
2022/08/25 06:40:08;;;;;;;11.85;7.55;;;20.00;99.90;;;;;;4939103;28;95562;-33
2022/08/25 06:42:34;;;;;;;9.60;8.03;;;20.10;99.90;;;;;;4939293;28;97280;-31
2022/08/25 06:45:00;;;;;;;8.55;7.63;;;20.20;99.90;;;;;;4939298;28;92412;-34
2022/08/25 06:47:26;;;;;;;10.95;8.02;;;20.40;99.90;;;;;;4939238;28;92740;-31
2022/08/25 06:49:51;;;;;;;9.63;6.70;;;20.50;99.90;;;;;;4938841;28;94541;-34
2022/08/25 06:52:17;;;;;;;12.43;7.82;;;20.60;99.90;;;;;;4938349;28;95702;-32
2022/08/25 06:54:42;;;;;;;11.35;8.15;;;20.80;99.90;;;;;;4939203;28;92524;-33
2022/08/25 06:57:08;;;;;;;8.48;7.47;;;20.90;99.90;;;;;;4939497;28;94325;-33
2022/08/25 06:59:35;;;;;;;9.93;6.85;;;21.00;99.90;;;;;;4939494;28;94509;-32
2022/08/25 07:02:02;;;;;;;17.33;7.38;;;21.20;99.90;;;;;;4939155;28;94790;-32
2022/08/25 07:04:28;;;;;;;13.30;6.90;;;21.30;99.90;;;;;;4938088;28;95786;-30
2022/08/25 07:06:54;;;;;;;15.35;8.50;;;21.40;99.90;;;;;;4937558;28;93242;-35
2022/08/25 07:09:20;;;;;;;12.63;6.63;;;21.50;99.90;;;;;;4939011;28;94729;-31
2022/08/25 07:11:46;;;;;;;9.68;7.03;;;21.70;99.90;;;;;;4939395;28;95153;-35
2022/08/25 07:14:15;;;;;;;11.57;7.35;;;21.90;99.90;;;;;;4939153;28;93188;-35
2022/08/25 07:16:41;;;;;;;10.52;6.90;;;22.10;99.90;;;;;;4939226;28;94236;-33
2022/08/25 07:19:07;;;;;;;8.45;7.65;;;22.20;99.90;;;;;;4937981;28;95752;-32
2022/08/25 07:21:35;;;;;;;12.50;7.05;;;22.30;99.90;;;;;;4939049;28;94438;-35
2022/08/25 07:24:04;;;;;;;7.07;6.03;;;22.50;99.90;;;;;;4939310;28;92384;-33
2022/08/25 07:26:35;;;;;;;10.20;7.45;;;22.70;99.90;;;;;;4938486;28;93586;-32
2022/08/25 07:29:04;;;;;;;9.32;7.75;;;22.90;99.90;;;;;;4937891;28;95813;-31
2022/08/25 07:31:30;;;;;;;13.38;6.88;;;23.00;99.90;;;;;;4938553;28;95608;-30
2022/08/25 07:36:41;;;;;;;8.48;7.68;;;23.50;99.90;;;;;;4938706;28;94713;-35
2022/08/25 07:39:08;;;;;;;7.03;6.32;;;23.80;99.90;;;;;;4938870;28;94475;-32
2022/08/25 07:41:39;;;;;;;12.70;8.10;;;24.00;99.90;;;;;;4937927;28;94520;-32
2022/08/25 07:44:05;;;;;;;7.05;6.15;;;24.20;99.90;;;;;;4938874;28;93853;-32
2022/08/25 07:46:31;;;;;;;6.57;5.72;;;24.40;99.90;;;;;;4937893;28;92301;-33
2022/08/25 07:48:56;;;;;;;8.30;7.45;;;24.70;99.90;;;;;;4938217;28;94916;-32
2022/08/25 07:51:22;;;;;;;7.10;6.40;;;24.80;99.90;;;;;;4937256;28;94708;-36
2022/08/25 07:53:48;;;;;;;7.78;5.78;;;25.00;99.90;;;;;;4938780;28;94483;-34
2022/08/25 07:56:15;;;;;;;7.20;5.80;;;25.20;99.90;;;;;;4938085;28;92594;-33
2022/08/25 07:58:42;;;;;;;7.53;6.03;;;25.30;99.90;;;;;;4938165;28;94665;-31
2022/08/25 08:01:17;;;;;;;7.65;6.10;;;25.40;99.90;;;;;;4938103;28;93139;-34
2022/08/25 08:03:43;;;;;;;7.15;5.97;;;25.60;99.90;;;;;;4938173;28;94590;-31
2022/08/25 08:06:12;;;;;;;7.70;6.65;;;25.70;99.90;;;;;;4937656;28;92874;-31
2022/08/25 08:08:42;;;;;;;6.95;6.25;;;25.80;99.90;;;;;;4937840;28;95048;-33
2022/08/25 08:11:14;;;;;;;7.60;5.57;;;25.90;99.90;;;;;;4938409;28;94418;-33
2022/08/25 08:13:40;;;;;;;6.38;5.13;;;26.00;99.90;;;;;;4937989;28;94065;-33
2022/08/25 08:16:10;;;;;;;6.20;5.45;;;26.10;99.90;;;;;;4938012;28;93321;-32
2022/08/25 08:18:36;;;;;;;7.57;6.25;;;26.20;99.90;;;;;;4937321;28;95636;-33
2022/08/25 08:21:02;;;;;;;9.43;5.85;;;26.30;99.90;;;;;;4938368;28;95360;-34
2022/08/25 08:23:28;;;;;;;11.15;6.03;;;26.40;99.90;;;;;;4938172;28;94985;-32
2022/08/25 08:25:54;;;;;;;6.90;5.88;;;26.60;99.90;;;;;;4937839;28;93782;-32
2022/08/25 08:28:20;;;;;;;6.00;5.47;;;26.70;99.90;;;;;;4937239;28;94872;-34
2022/08/25 08:30:46;;;;;;;5.68;5.28;;;26.80;99.90;;;;;;4937579;28;94708;-32
2022/08/25 08:33:11;;;;;;;6.70;5.90;;;26.90;99.90;;;;;;4938618;28;94638;-35
2022/08/25 08:35:37;;;;;;;10.38;6.43;;;27.10;99.90;;;;;;4937844;28;92644;-33
2022/08/25 08:38:03;;;;;;;5.07;4.68;;;27.20;99.90;;;;;;4937860;28;94563;-32
2022/08/25 08:40:30;;;;;;;6.63;5.15;;;27.40;99.90;;;;;;4936700;28;94974;-33
2022/08/25 08:43:14;;;;;;;8.55;6.07;;;27.50;99.90;;;;;;4937275;28;93644;-33
2022/08/25 08:45:51;;;;;;;115.03;19.92;;;27.60;99.90;;;;;;4938069;28;92113;-32
2022/08/25 08:48:41;;;;;;;7.03;6.00;;;27.70;99.90;;;;;;4936678;28;94222;-33
2022/08/25 08:51:23;;;;;;;6.05;5.57;;;27.70;99.90;;;;;;4937872;28;94944;-34
2022/08/25 08:54:13;;;;;;;9.07;6.22;;;27.90;99.90;;;;;;4937405;28;93514;-31
2022/08/25 08:56:42;;;;;;;7.30;6.30;;;28.10;99.90;;;;;;4937534;28;92937;-33
2022/08/25 08:59:18;;;;;;;5.95;5.35;;;28.10;99.90;;;;;;4937047;28;95400;-33
2022/08/25 09:01:55;;;;;;;6.28;5.60;;;28.10;99.90;;;;;;4933854;28;95962;-33
2022/08/25 09:04:39;;;;;;;10.57;5.75;;;28.30;99.90;;;;;;4929164;28;92944;-33
2022/08/25 09:07:11;;;;;;;6.72;6.03;;;28.30;99.90;;;;;;4937980;28;94525;-35
2022/08/25 09:09:40;;;;;;;7.22;5.68;;;28.50;99.90;;;;;;4934983;28;96286;-34
2022/08/25 09:12:18;;;;;;;5.80;5.30;;;28.60;96.70;;;;;;4922631;28;95397;-32
2022/08/25 09:15:06;;;;;;;7.97;4.60;;;28.60;98.20;;;;;;4935328;28;92702;-32
2022/08/25 09:17:37;;;;;;;6.38;5.40;;;28.60;96.50;;;;;;4924393;28;93147;-33
2022/08/25 09:20:35;;;;;;;6.38;5.78;;;28.50;96.60;;;;;;4934523;28;93563;-32
2022/08/25 09:23:05;;;;;;;25.58;8.13;;;28.60;91.90;;;;;;4934232;28;94472;-32
2022/08/25 09:25:50;;;;;;;5.78;4.93;;;28.50;90.00;;;;;;4934771;28;92716;-33
2022/08/25 09:28:38;;;;;;;8.15;4.63;;;28.60;87.80;;;;;;4935198;28;93495;-34
2022/08/25 09:31:18;;;;;;;7.03;6.32;;;28.70;92.70;;;;;;4935102;28;94688;-32
2022/08/25 09:33:44;;;;;;;5.47;4.88;;;28.80;90.00;;;;;;4934589;28;95879;-34
2022/08/25 09:36:10;;;;;;;5.65;4.60;;;29.00;86.30;;;;;;4935703;28;94626;-33
2022/08/25 09:38:36;;;;;;;5.45;4.38;;;29.10;77.10;;;;;;4934918;28;94741;-32
2022/08/25 09:41:02;;;;;;;4.18;3.80;;;29.20;72.40;;;;;;4934334;28;94577;-35
2022/08/25 09:43:30;;;;;;;5.97;4.30;;;29.20;70.10;;;;;;4934807;28;94811;-32
2022/08/25 09:46:34;;;;;;;8.60;5.05;;;29.30;70.70;;;;;;4933670;28;93203;-32
2022/08/25 09:49:35;;;;;;;14.82;5.10;;;29.50;68.00;;;;;;4915166;28;93192;-35
2022/08/25 09:52:16;;;;;;;8.07;4.80;;;29.70;65.70;;;;;;4923669;28;95650;-32
2022/08/25 09:54:41;;;;;;;4.25;3.95;;;29.80;66.40;;;;;;4939235;28;94498;-31
2022/08/25 09:57:07;;;;;;;7.47;4.15;;;29.90;66.40;;;;;;4938683;28;94646;-32
2022/08/25 09:59:35;;;;;;;4.03;3.50;;;30.00;64.00;;;;;;4938439;28;94185;-33
2022/08/25 10:02:29;;;;;;;5.63;4.00;;;30.00;57.10;;;;;;4937664;28;96029;-32
2022/08/25 10:04:55;;;;;;;6.22;3.80;;;30.00;58.30;;;;;;4933925;28;95405;-31
2022/08/25 10:07:29;;;;;;;4.93;3.83;;;30.00;58.50;;;;;;4937963;28;93928;-31
2022/08/25 10:09:58;;;;;;;4.13;3.10;;;30.10;58.90;;;;;;4936948;28;92260;-35
2022/08/25 10:12:46;;;;;;;26.67;8.13;;;30.30;58.60;;;;;;4936668;28;94948;-34
2022/08/25 10:15:33;;;;;;;7.88;4.47;;;30.60;57.40;;;;;;4936486;28;95339;-34
2022/08/25 10:18:23;;;;;;;19.27;6.95;;;30.50;57.90;;;;;;4937764;28;94727;-33
2022/08/25 10:21:00;;;;;;;4.20;3.45;;;30.40;56.40;;;;;;4930818;28;93074;-30
2022/08/25 10:23:26;;;;;;;3.65;3.35;;;30.40;57.00;;;;;;4934846;28;94742;-35
2022/08/25 10:25:53;;;;;;;5.40;3.90;;;30.50;57.00;;;;;;4937953;28;94647;-34
2022/08/25 10:29:03;;;;;;;4.22;3.88;;;30.50;55.90;;;;;;4936242;28;94905;-34
2022/08/25 10:31:31;;;;;;;5.90;4.00;;;30.40;56.70;;;;;;4937565;28;92958;-35
2022/08/25 10:34:15;;;;;;;7.43;3.63;;;30.40;55.00;;;;;;4937921;28;94745;-32
2022/08/25 10:36:55;;;;;;;4.35;3.95;;;30.30;56.50;;;;;;4938049;28;94313;-34
2022/08/25 10:39:39;;;;;;;3.67;3.38;;;30.30;57.20;;;;;;4937144;28;92937;-31
2022/08/25 10:42:28;;;;;;;3.63;3.22;;;30.40;56.10;;;;;;4937543;28;93014;-33
2022/08/25 10:48:36;;;;;;;4.78;4.18;;;30.30;55.60;;;;;;4938324;28;94599;-32
2022/08/25 10:51:26;;;;;;;4.32;3.85;;;30.40;56.60;;;;;;4937738;28;93112;-32
2022/08/25 10:54:08;;;;;;;4.82;4.22;;;30.40;56.80;;;;;;4929596;28;92658;-31
2022/08/25 10:56:37;;;;;;;5.20;4.70;;;30.50;56.90;;;;;;4933853;28;96147;-32
2022/08/25 10:59:25;;;;;;;3.80;3.58;;;30.50;57.20;;;;;;4936529;28;95089;-33
2022/08/25 11:02:37;;;;;;;4.45;4.05;;;30.50;56.70;;;;;;4934870;28;94614;-33
2022/08/25 11:05:02;;;;;;;4.85;4.18;;;30.40;56.80;;;;;;4923463;28;93760;-31
2022/08/25 11:07:39;;;;;;;6.95;4.45;;;30.30;55.90;;;;;;4929085;28;94570;-33
2022/08/25 11:10:14;;;;;;;4.30;3.90;;;30.30;56.10;;;;;;4936218;28;96519;-34
2022/08/25 11:12:48;;;;;;;4.18;3.88;;;30.20;56.70;;;;;;4936753;28;92816;-35
2022/08/25 11:15:21;;;;;;;4.15;3.75;;;30.30;55.00;;;;;;4936344;28;92806;-34
2022/08/25 11:18:00;;;;;;;5.82;4.13;;;30.30;55.70;;;;;;4936520;28;94717;-35
2022/08/25 11:20:58;;;;;;;5.13;4.50;;;30.30;56.30;;;;;;4935985;28;94497;-32
2022/08/25 11:23:43;;;;;;;4.45;4.10;;;30.30;54.50;;;;;;4935898;28;94529;-34
2022/08/25 11:26:28;;;;;;;6.45;4.95;;;30.20;56.40;;;;;;4936760;28;94336;-31
2022/08/25 11:29:03;;;;;;;3.90;3.60;;;30.20;55.30;;;;;;4935486;28;94855;-34
2022/08/25 11:31:35;;;;;;;3.95;3.65;;;30.30;55.40;;;;;;4935853;28;94436;-33
2022/08/25 11:34:01;;;;;;;5.85;4.20;;;30.40;56.30;;;;;;4936655;28;92132;-35
2022/08/25 11:36:34;;;;;;;5.65;4.10;;;30.50;53.70;;;;;;4936533;28;93350;-33
2022/08/25 11:39:10;;;;;;;5.22;3.80;;;30.50;54.40;;;;;;4936011;28;95665;-34
2022/08/25 11:42:16;;;;;;;4.43;4.03;;;30.50;53.90;;;;;;4935899;28;95036;-33
2022/08/25 11:45:19;;;;;;;10.68;3.88;;;30.60;53.10;;;;;;4924260;28;93984;-32
2022/08/25 11:48:12;;;;;;;4.00;3.70;;;30.50;54.00;;;;;;4936748;28;93048;-33
2022/08/25 11:51:06;;;;;;;6.10;3.40;;;30.50;53.40;;;;;;4935567;28;95763;-33
2022/08/25 11:53:34;;;;;;;5.10;4.10;;;30.50;54.30;;;;;;4934779;28;95446;-32
2022/08/25 11:56:04;;;;;;;;;;;30.50;53.60;;;;;;4936720;28;94011;-34
2022/08/25 11:58:52;;;;;;;4.25;3.25;;;30.60;53.80;;;;;;4937488;28;94007;-35
2022/08/25 12:01:43;;;;;;;4.18;3.50;;;30.60;51.50;;;;;;4935846;28;94528;-35
2022/08/25 12:04:29;;;;;;;5.00;3.90;;;30.60;52.60;;;;;;4936095;28;95342;-35
2022/08/25 12:07:10;;;;;;;4.18;3.83;;;30.60;53.00;;;;;;4936050;28;94065;-32
2022/08/25 12:09:50;;;;;;;5.65;3.70;;;30.60;51.90;;;;;;4934665;28;92774;-33
2022/08/25 12:12:53;;;;;;;4.22;3.92;;;30.50;52.50;;;;;;4935291;28;95837;-34
2022/08/25 12:15:22;;;;;;;7.50;4.68;;;30.60;52.30;;;;;;4935668;28;94570;-35
2022/08/25 12:18:08;;;;;;;6.63;3.80;;;30.50;52.20;;;;;;4935347;28;93180;-33
2022/08/25 12:20:52;;;;;;;5.32;3.55;;;30.50;52.20;;;;;;4935370;28;93761;-32
2022/08/25 12:23:36;;;;;;;3.58;3.30;;;30.50;53.20;;;;;;4935421;28;95928;-32
2022/08/25 12:26:24;;;;;;;8.10;3.95;;;30.60;52.70;;;;;;4935787;28;94794;-33
2022/08/25 12:29:03;;;;;;;5.47;3.58;;;30.60;51.90;;;;;;4966120;22;92746;-31
2022/08/25 12:31:50;;;;;;;7.65;3.95;;;30.50;51.60;;;;;;4935779;28;93835;-32
2022/08/25 12:34:39;;;;;;;4.10;3.77;;;30.50;52.60;;;;;;4936091;28;95853;-35
2022/08/25 12:37:26;;;;;;;4.53;4.03;;;30.40;52.00;;;;;;4936136;28;94582;-33
2022/08/25 12:40:01;;;;;;;4.82;4.13;;;30.50;53.40;;;;;;4935498;28;94241;-35
2022/08/25 12:42:37;;;;;;;8.93;3.97;;;30.50;52.80;;;;;;4934630;28;93651;-36
2022/08/25 12:45:24;;;;;;;4.20;3.90;;;30.40;53.50;;;;;;4932860;28;96577;-34
2022/08/25 12:47:52;;;;;;;10.40;5.43;;;30.40;55.00;;;;;;4936150;28;95862;-32
2022/08/25 12:50:35;;;;;;;6.93;4.57;;;30.50;54.30;;;;;;4935673;28;93071;-33
2022/08/25 12:53:34;;;;;;;3.70;3.30;;;30.50;52.60;;;;;;4935717;28;94354;-35
2022/08/25 12:56:23;;;;;;;7.75;3.85;;;30.40;53.50;;;;;;4935157;28;94498;-35
2022/08/25 12:59:01;;;;;;;8.32;4.32;;;30.30;52.90;;;;;;4933952;28;94077;-32
2022/08/25 13:01:51;;;;;;;4.18;3.75;;;30.30;54.00;;;;;;4934436;28;92672;-36
2022/08/25 13:04:16;;;;;;;7.50;3.47;;;30.40;54.40;;;;;;4935698;28;92342;-34
2022/08/25 13:07:21;;;;;;;6.47;4.43;;;30.50;52.40;;;;;;4934621;28;94719;-35
2022/08/25 13:10:28;;;;;;;13.63;4.85;;;30.50;53.10;;;;;;4914507;28;93547;-34
2022/08/25 13:12:59;;;;;;;;;;;30.40;51.60;;;;;;4934739;28;94838;-35
2022/08/25 13:15:41;;;;;;;5.28;4.78;;;30.30;53.50;;;;;;4936420;28;94373;-32
2022/08/25 13:18:14;;;;;;;5.07;4.47;;;30.30;53.60;;;;;;4935170;28;94555;-34